Time;durP1;ratioP1;P1;durP2;ratioP2;P2;SDS_P1;SDS_P2;PMS_P1;PMS_P2;Temp;Humidity;BMP_temperature;BMP_pressure;BME280_temperature;BME280_humidity;BME280_pressure;Samples;Min_cycle;Max_cycle;Signal;HPM_P1;HPM_P2
2021/06/21 00:00:14;;;;;;;2.40;2.30;;;24.70;96.90;;;;;;5121329;27;20626;-67
2021/06/21 00:02:43;;;;;;;3.50;3.03;;;24.70;97.10;;;;;;5117258;27;20188;-67
2021/06/21 00:05:12;;;;;;;2.80;2.70;;;24.70;97.40;;;;;;5111307;28;20192;-67
2021/06/21 00:07:39;;;;;;;2.60;2.40;;;24.70;97.60;;;;;;5111970;27;20192;-67
2021/06/21 00:10:07;;;;;;;2.10;2.00;;;24.70;97.70;;;;;;5124368;27;20195;-67
2021/06/21 00:12:37;;;;;;;2.42;2.33;;;24.60;97.80;;;;;;5110393;28;20562;-67
2021/06/21 00:15:05;;;;;;;2.08;1.98;;;24.60;98.00;;;;;;5110234;28;20509;-67
2021/06/21 00:17:32;;;;;;;2.05;1.95;;;24.60;98.20;;;;;;5118194;27;20881;-67
2021/06/21 00:19:59;;;;;;;2.25;2.15;;;24.60;98.30;;;;;;5111288;28;20199;-67
2021/06/21 00:22:26;;;;;;;2.10;2.00;;;24.60;98.50;;;;;;5114254;27;20207;-67
2021/06/21 00:24:53;;;;;;;2.35;2.25;;;24.60;98.60;;;;;;5124779;27;20211;-67
2021/06/21 00:27:20;;;;;;;2.42;2.22;;;24.50;98.70;;;;;;5120568;27;20236;-67
2021/06/21 00:29:49;;;;;;;2.20;2.10;;;24.50;98.80;;;;;;5110523;28;20276;-67
2021/06/21 00:32:16;;;;;;;2.20;2.10;;;24.50;99.00;;;;;;5110674;28;20278;-67
2021/06/21 00:34:43;;;;;;;2.60;2.40;;;24.50;99.20;;;;;;5110699;28;20234;-68
2021/06/21 00:37:10;;;;;;;2.30;2.20;;;24.50;99.40;;;;;;5114706;27;20258;-67
2021/06/21 00:39:37;;;;;;;3.20;2.90;;;24.40;99.60;;;;;;5110781;27;20231;-67
2021/06/21 00:42:04;;;;;;;2.50;2.38;;;24.40;99.90;;;;;;5120068;27;20216;-67
2021/06/21 00:44:31;;;;;;;3.17;2.97;;;24.30;99.90;;;;;;5108315;28;20227;-67
2021/06/21 00:47:00;;;;;;;2.38;2.17;;;24.30;99.90;;;;;;5109610;28;20891;-67
2021/06/21 00:49:27;;;;;;;2.60;2.35;;;24.20;99.90;;;;;;5115118;27;20218;-67
2021/06/21 00:51:56;;;;;;;2.50;2.40;;;24.20;99.90;;;;;;5113379;27;20198;-67
2021/06/21 00:54:23;;;;;;;2.55;2.45;;;24.20;99.90;;;;;;5113998;27;20226;-67
2021/06/21 00:56:51;;;;;;;2.40;2.30;;;24.20;99.90;;;;;;5112443;27;20997;-67
2021/06/21 00:59:18;;;;;;;2.90;2.70;;;24.20;99.90;;;;;;5107854;27;20302;-67
2021/06/21 01:01:45;;;;;;;2.42;2.33;;;24.10;99.90;;;;;;5109934;28;20188;-67
2021/06/21 01:04:14;;;;;;;2.42;2.33;;;24.10;99.90;;;;;;5108751;28;20204;-67
2021/06/21 01:06:41;;;;;;;2.60;2.50;;;24.00;99.90;;;;;;5108657;28;20232;-67
2021/06/21 01:09:08;;;;;;;3.47;2.55;;;24.00;99.90;;;;;;5113819;27;20286;-67
2021/06/21 01:11:52;;;;;;;2.75;2.58;;;23.90;99.90;;;;;;5114784;27;20277;-67
2021/06/21 01:14:24;;;;;;;2.92;2.72;;;23.90;99.90;;;;;;5095878;28;20852;-67
2021/06/21 01:16:59;;;;;;;3.28;3.08;;;23.90;99.90;;;;;;5114493;27;20234;-67
2021/06/21 01:19:56;;;;;;;2.88;2.65;;;23.80;99.90;;;;;;5092387;28;20278;-66
2021/06/21 01:23:07;;;;;;;2.70;2.60;;;23.80;99.90;;;;;;5108628;28;20728;-67
2021/06/21 01:25:39;;;;;;;3.15;2.78;;;23.70;99.90;;;;;;5109302;28;20659;-66
2021/06/21 01:28:11;;;;;;;2.53;2.42;;;23.70;99.90;;;;;;5103249;28;20212;-66
2021/06/21 01:30:52;;;;;;;2.97;2.78;;;23.70;99.90;;;;;;5107907;28;20532;-67
2021/06/21 01:33:22;;;;;;;2.55;2.45;;;23.60;99.90;;;;;;5110663;27;20539;-67
2021/06/21 01:35:53;;;;;;;3.22;3.03;;;23.60;99.90;;;;;;5109737;28;20195;-66
2021/06/21 01:38:25;;;;;;;2.80;2.70;;;23.60;99.90;;;;;;5104864;28;20220;-66
2021/06/21 01:40:55;;;;;;;2.80;2.70;;;23.60;99.90;;;;;;5097352;28;20587;-66
2021/06/21 01:43:26;;;;;;;2.60;2.40;;;23.50;99.90;;;;;;5109015;28;20214;-67
2021/06/21 01:45:53;;;;;;;2.60;2.40;;;23.50;99.90;;;;;;5107794;28;20211;-66
2021/06/21 01:48:26;;;;;;;2.50;2.40;;;23.60;99.90;;;;;;5109177;28;20303;-66
2021/06/21 01:50:56;;;;;;;3.13;2.45;;;23.50;99.90;;;;;;5099842;28;20253;-66
2021/06/21 01:53:25;;;;;;;2.53;2.42;;;23.50;99.90;;;;;;5108655;28;20208;-67
2021/06/21 01:55:59;;;;;;;2.67;2.58;;;23.50;99.90;;;;;;5106471;28;20227;-67
2021/06/21 01:58:28;;;;;;;3.10;2.90;;;23.50;99.90;;;;;;5128813;27;20724;-67
2021/06/21 02:00:55;;;;;;;2.58;2.38;;;23.40;99.90;;;;;;5111923;27;20295;-67
2021/06/21 02:03:25;;;;;;;2.45;2.35;;;23.40;99.90;;;;;;5109838;28;20279;-66
2021/06/21 02:05:53;;;;;;;2.30;2.20;;;23.40;99.90;;;;;;5108875;28;20200;-66
2021/06/21 02:08:22;;;;;;;2.47;2.38;;;23.40;99.90;;;;;;5109029;28;20190;-66
2021/06/21 02:10:51;;;;;;;2.70;2.50;;;23.40;99.90;;;;;;5108868;28;20745;-66
2021/06/21 02:13:21;;;;;;;3.30;3.10;;;23.40;99.90;;;;;;5108867;28;20203;-67
2021/06/21 02:15:48;;;;;;;3.22;2.92;;;23.40;99.90;;;;;;5107198;28;20846;-67
2021/06/21 02:18:19;;;;;;;3.30;3.10;;;23.30;99.90;;;;;;5099431;28;20223;-67
2021/06/21 02:20:48;;;;;;;4.70;3.60;;;23.30;99.90;;;;;;5105711;28;20200;-67
2021/06/21 02:23:17;;;;;;;3.20;3.00;;;23.30;99.90;;;;;;5110725;28;20216;-67
2021/06/21 02:25:46;;;;;;;3.22;3.03;;;23.20;99.90;;;;;;5110825;28;20314;-67
2021/06/21 02:28:14;;;;;;;2.67;2.47;;;23.20;99.90;;;;;;5103592;28;20276;-67
2021/06/21 02:30:42;;;;;;;3.10;2.60;;;23.20;99.90;;;;;;5109470;28;20340;-67
2021/06/21 02:33:09;;;;;;;3.70;2.65;;;23.10;99.90;;;;;;5113593;28;20195;-67
2021/06/21 02:35:39;;;;;;;3.85;3.55;;;23.10;99.90;;;;;;5110726;27;20221;-67
2021/06/21 02:38:07;;;;;;;3.90;3.60;;;23.10;99.90;;;;;;5113188;28;20753;-67
2021/06/21 02:40:35;;;;;;;3.28;3.08;;;23.10;99.90;;;;;;5112865;28;20310;-67
2021/06/21 02:43:02;;;;;;;2.83;2.72;;;23.00;99.90;;;;;;5133234;27;20219;-67
2021/06/21 02:45:30;;;;;;;2.75;2.65;;;23.00;99.90;;;;;;5111414;27;20626;-67
2021/06/21 02:47:57;;;;;;;3.30;3.10;;;23.00;99.90;;;;;;5113307;28;20295;-68
2021/06/21 02:50:25;;;;;;;3.20;3.00;;;23.00;99.90;;;;;;5118933;27;20227;-67
2021/06/21 02:53:02;;;;;;;3.17;2.97;;;23.00;99.90;;;;;;5113607;28;20192;-67
2021/06/21 02:55:36;;;;;;;2.72;2.63;;;23.00;99.90;;;;;;5107847;28;20477;-67
2021/06/21 02:58:10;;;;;;;2.83;2.63;;;23.00;99.90;;;;;;5111637;27;20213;-67
2021/06/21 03:00:39;;;;;;;2.53;2.40;;;23.10;99.90;;;;;;5111355;27;20200;-66
2021/06/21 03:03:09;;;;;;;2.60;2.40;;;23.10;99.90;;;;;;5112868;27;20231;-67
2021/06/21 03:05:38;;;;;;;3.20;3.00;;;23.10;99.90;;;;;;5111540;27;20195;-67
2021/06/21 03:08:07;;;;;;;2.90;2.70;;;23.10;99.90;;;;;;5108532;28;20221;-66
2021/06/21 03:10:39;;;;;;;3.50;3.30;;;23.10;99.90;;;;;;5111181;27;20206;-66
2021/06/21 03:13:07;;;;;;;2.95;2.78;;;23.10;99.90;;;;;;5111569;28;20188;-68
2021/06/21 03:15:34;;;;;;;3.03;2.92;;;23.10;99.90;;;;;;5107594;27;20286;-67
2021/06/21 03:18:02;;;;;;;4.60;4.20;;;23.10;99.90;;;;;;5112416;28;20303;-66
2021/06/21 03:20:30;;;;;;;3.17;3.00;;;23.10;99.90;;;;;;5112140;28;20247;-66
2021/06/21 03:22:59;;;;;;;3.08;2.70;;;23.10;99.90;;;;;;5113240;28;20211;-67
2021/06/21 03:25:27;;;;;;;3.50;3.30;;;23.30;99.90;;;;;;5110688;28;20693;-67
2021/06/21 03:27:56;;;;;;;3.35;3.15;;;23.10;99.90;;;;;;5107547;27;20639;-67
2021/06/21 03:30:24;;;;;;;3.40;3.10;;;23.10;99.90;;;;;;5111493;27;20262;-68
2021/06/21 03:32:52;;;;;;;3.00;2.80;;;23.10;99.90;;;;;;5110878;28;20287;-68
2021/06/21 03:35:21;;;;;;;3.30;3.10;;;23.20;99.90;;;;;;5116159;27;20196;-67
2021/06/21 03:37:49;;;;;;;2.90;2.70;;;23.20;99.90;;;;;;5116825;27;20234;-68
2021/06/21 03:40:16;;;;;;;2.97;2.60;;;23.20;99.90;;;;;;5112970;27;20207;-67
2021/06/21 03:42:44;;;;;;;2.85;2.65;;;23.20;99.90;;;;;;5118259;27;20257;-67
2021/06/21 03:45:13;;;;;;;2.90;2.70;;;23.30;99.90;;;;;;5113786;27;20223;-67
2021/06/21 03:47:42;;;;;;;2.88;2.70;;;23.30;99.90;;;;;;5115441;27;20306;-67
2021/06/21 03:50:10;;;;;;;3.00;2.88;;;23.30;99.90;;;;;;5111742;28;20199;-68
2021/06/21 03:52:37;;;;;;;3.22;3.03;;;23.30;99.90;;;;;;5120713;27;20203;-67
2021/06/21 03:55:08;;;;;;;3.55;3.28;;;23.30;99.90;;;;;;5120258;27;20195;-67
2021/06/21 03:57:39;;;;;;;3.30;3.10;;;23.30;99.90;;;;;;5109559;27;20222;-68
2021/06/21 04:00:10;;;;;;;3.20;3.00;;;23.40;99.90;;;;;;5120946;27;20191;-67
2021/06/21 04:02:39;;;;;;;3.60;3.33;;;23.40;99.90;;;;;;5119387;27;20261;-68
2021/06/21 04:05:10;;;;;;;3.25;3.05;;;23.40;99.90;;;;;;5111770;28;20667;-67
2021/06/21 04:07:37;;;;;;;3.42;3.15;;;23.50;99.90;;;;;;5106284;27;20727;-67
2021/06/21 04:10:05;;;;;;;4.82;3.50;;;23.50;99.90;;;;;;5107000;28;20191;-68
2021/06/21 04:12:34;;;;;;;3.88;3.45;;;23.60;99.90;;;;;;5114990;27;20259;-67
2021/06/21 04:15:01;;;;;;;3.78;2.83;;;23.50;99.90;;;;;;5110767;28;20332;-67
2021/06/21 04:17:28;;;;;;;3.35;3.10;;;23.60;99.90;;;;;;5110349;28;20302;-67
2021/06/21 04:19:56;;;;;;;3.30;3.10;;;23.60;99.90;;;;;;5111052;28;20667;-68
2021/06/21 04:22:23;;;;;;;3.17;3.05;;;23.60;99.90;;;;;;5111458;28;20192;-67
2021/06/21 04:24:50;;;;;;;3.58;3.33;;;23.60;99.90;;;;;;5110120;28;20261;-67
2021/06/21 04:27:17;;;;;;;3.33;3.13;;;23.70;99.90;;;;;;5109965;28;20745;-67
2021/06/21 04:29:44;;;;;;;3.47;3.28;;;23.70;99.90;;;;;;5113441;27;20222;-68
2021/06/21 04:32:11;;;;;;;4.07;3.75;;;23.80;99.90;;;;;;5113996;27;20198;-67
2021/06/21 04:34:38;;;;;;;3.45;3.20;;;23.80;99.90;;;;;;5119017;27;20234;-67
2021/06/21 04:37:07;;;;;;;3.95;3.58;;;23.80;99.90;;;;;;5106960;27;20223;-67
2021/06/21 04:39:34;;;;;;;3.92;3.63;;;23.90;99.90;;;;;;5115831;27;20314;-67
2021/06/21 04:42:01;;;;;;;3.80;3.50;;;23.90;99.90;;;;;;5114059;27;20291;-67
2021/06/21 04:44:28;;;;;;;4.60;4.18;;;23.90;99.90;;;;;;5120230;27;20230;-67
2021/06/21 04:46:55;;;;;;;4.05;3.75;;;24.00;99.90;;;;;;5108362;27;20224;-67
2021/06/21 04:49:22;;;;;;;4.47;4.07;;;24.00;99.90;;;;;;5115566;27;20191;-66
2021/06/21 04:51:51;;;;;;;4.88;4.45;;;24.00;99.90;;;;;;5116618;28;20196;-67
2021/06/21 04:54:20;;;;;;;4.25;3.95;;;24.10;99.90;;;;;;5116833;27;20216;-67
2021/06/21 04:56:47;;;;;;;4.70;4.40;;;24.10;99.90;;;;;;5110514;28;20224;-67
2021/06/21 04:59:14;;;;;;;3.42;3.22;;;24.20;99.90;;;;;;5124767;27;20215;-67
2021/06/21 05:01:41;;;;;;;3.70;3.50;;;24.20;99.90;;;;;;5107467;28;20675;-66
2021/06/21 05:04:08;;;;;;;3.70;3.40;;;24.30;99.90;;;;;;5110421;27;20608;-67
2021/06/21 05:06:36;;;;;;;3.80;3.50;;;24.40;99.90;;;;;;5108626;28;20286;-66
2021/06/21 05:09:05;;;;;;;4.82;4.50;;;24.50;99.90;;;;;;5110599;27;20357;-66
2021/06/21 05:11:34;;;;;;;4.47;4.18;;;24.50;99.90;;;;;;5111124;27;20719;-66
2021/06/21 05:14:01;;;;;;;5.10;4.60;;;24.60;99.90;;;;;;5109094;28;20204;-66
2021/06/21 05:16:28;;;;;;;4.70;4.40;;;24.60;99.90;;;;;;5108724;28;20199;-65
2021/06/21 05:18:55;;;;;;;4.72;4.32;;;24.60;99.90;;;;;;5110273;28;20243;-66
2021/06/21 05:21:22;;;;;;;4.43;4.13;;;24.70;99.90;;;;;;5109665;28;20196;-66
2021/06/21 05:23:49;;;;;;;4.57;4.28;;;24.70;99.90;;;;;;5109024;28;20627;-67
2021/06/21 05:26:17;;;;;;;4.45;4.05;;;24.90;99.90;;;;;;5118694;27;20223;-66
2021/06/21 05:28:45;;;;;;;3.90;3.70;;;24.90;99.90;;;;;;5108225;27;20184;-67
2021/06/21 05:31:12;;;;;;;3.88;3.40;;;25.00;99.90;;;;;;5103572;28;20203;-67
2021/06/21 05:33:39;;;;;;;3.97;3.67;;;25.20;99.90;;;;;;5110082;28;20722;-67
2021/06/21 05:36:06;;;;;;;3.78;3.47;;;25.30;99.90;;;;;;5113839;27;20215;-67
2021/06/21 05:38:33;;;;;;;3.35;3.05;;;25.40;99.90;;;;;;5109175;28;20235;-67
2021/06/21 05:41:00;;;;;;;4.05;3.75;;;25.50;99.90;;;;;;5108519;28;20233;-67
2021/06/21 05:43:27;;;;;;;5.10;4.63;;;25.60;99.90;;;;;;5106156;27;20679;-67
2021/06/21 05:45:56;;;;;;;4.10;3.80;;;25.80;99.90;;;;;;5108504;28;20260;-67
2021/06/21 05:48:23;;;;;;;5.13;4.68;;;25.90;99.90;;;;;;5107410;28;20187;-67
2021/06/21 05:50:50;;;;;;;5.20;4.70;;;25.90;99.90;;;;;;5109403;28;20199;-67
2021/06/21 05:53:18;;;;;;;4.95;4.45;;;26.00;99.90;;;;;;5108208;28;20199;-67
2021/06/21 05:55:45;;;;;;;4.80;4.32;;;26.10;99.90;;;;;;5108226;28;20238;-67
2021/06/21 05:58:12;;;;;;;3.83;3.60;;;26.20;99.90;;;;;;5107289;27;20777;-67
2021/06/21 06:00:39;;;;;;;3.75;3.45;;;26.40;99.90;;;;;;5106993;28;20990;-67
2021/06/21 06:03:07;;;;;;;4.10;3.45;;;26.50;99.90;;;;;;5112603;27;20318;-67
2021/06/21 06:05:34;;;;;;;3.28;3.08;;;26.70;99.90;;;;;;5112153;27;20207;-67
2021/06/21 06:08:01;;;;;;;3.45;3.25;;;26.90;99.90;;;;;;5112802;27;20218;-67
2021/06/21 06:10:28;;;;;;;4.05;3.75;;;27.00;99.90;;;;;;5112829;28;20220;-67
2021/06/21 06:12:55;;;;;;;3.95;3.72;;;27.20;99.90;;;;;;5099468;27;20299;-67
2021/06/21 06:15:23;;;;;;;4.30;3.90;;;27.30;99.90;;;;;;5112637;28;20200;-67
2021/06/21 06:17:50;;;;;;;3.80;3.50;;;28.00;99.90;;;;;;5114281;28;20195;-67
2021/06/21 06:20:19;;;;;;;3.92;3.53;;;29.80;99.90;;;;;;5107586;28;20294;-67
2021/06/21 06:22:46;;;;;;;4.38;3.65;;;31.90;99.90;;;;;;5109502;28;20286;-67
2021/06/21 06:25:15;;;;;;;6.25;3.78;;;33.80;95.20;;;;;;5109414;28;20223;-67
2021/06/21 06:27:43;;;;;;;3.95;3.63;;;35.40;90.70;;;;;;5121083;27;20239;-67
2021/06/21 06:30:12;;;;;;;3.97;3.67;;;36.60;82.10;;;;;;5112808;28;20652;-67
2021/06/21 06:32:40;;;;;;;4.18;3.83;;;37.60;75.90;;;;;;5114455;28;20211;-67
2021/06/21 06:35:08;;;;;;;3.60;3.35;;;38.60;70.00;;;;;;5106827;28;20304;-67
2021/06/21 06:37:36;;;;;;;3.95;3.75;;;39.40;66.30;;;;;;5107433;28;20227;-67
2021/06/21 06:40:05;;;;;;;3.72;3.53;;;40.00;61.20;;;;;;5118715;28;20268;-67
2021/06/21 06:42:32;;;;;;;3.42;3.22;;;40.50;59.00;;;;;;5106559;28;20203;-67
2021/06/21 06:44:59;;;;;;;4.15;3.72;;;40.90;56.60;;;;;;5109130;28;20367;-68
2021/06/21 06:47:26;;;;;;;3.00;2.90;;;41.40;55.00;;;;;;5115152;28;20187;-68
2021/06/21 06:49:53;;;;;;;3.72;3.42;;;42.10;53.80;;;;;;5109980;28;20219;-68
2021/06/21 06:52:22;;;;;;;3.67;3.47;;;42.80;51.70;;;;;;5101434;28;20204;-68
2021/06/21 06:57:32;;;;;;;4.15;3.85;;;43.60;48.50;;;;;;5099460;28;20252;-67
2021/06/21 06:59:59;;;;;;;4.38;3.92;;;43.70;47.40;;;;;;5104410;28;20207;-66
2021/06/21 07:02:26;;;;;;;4.95;4.65;;;43.90;46.30;;;;;;5094102;28;20260;-67
2021/06/21 07:04:53;;;;;;;3.85;3.65;;;44.20;45.20;;;;;;5108520;28;20293;-68
2021/06/21 07:07:20;;;;;;;3.10;2.95;;;45.20;44.10;;;;;;5106662;28;20201;-68
2021/06/21 07:09:48;;;;;;;5.18;4.68;;;46.30;42.60;;;;;;5110049;28;20194;-68
2021/06/21 07:12:16;;;;;;;4.60;4.30;;;47.50;40.00;;;;;;5106963;28;20745;-67
2021/06/21 07:14:43;;;;;;;4.70;4.40;;;47.70;38.50;;;;;;5109290;28;20300;-68
2021/06/21 07:17:10;;;;;;;3.85;3.65;;;48.00;38.20;;;;;;5114231;27;20301;-65
2021/06/21 07:19:37;;;;;;;3.97;3.67;;;47.60;38.10;;;;;;5114349;27;20217;-70
2021/06/21 07:22:05;;;;;;;6.25;4.20;;;46.00;38.40;;;;;;5109886;27;20218;-70
2021/06/21 07:24:31;;;;;;;3.97;3.67;;;44.10;40.30;;;;;;5106776;27;20198;-69
2021/06/21 07:26:59;;;;;;;4.13;3.92;;;42.50;42.20;;;;;;5108411;27;20217;-69
2021/06/21 07:29:27;;;;;;;4.32;4.13;;;41.10;43.90;;;;;;5108909;28;20558;-71
2021/06/21 07:31:54;;;;;;;4.22;3.92;;;39.90;45.50;;;;;;5108504;27;20599;-69
2021/06/21 07:34:22;;;;;;;3.78;3.55;;;38.90;46.90;;;;;;5107599;27;20200;-69
2021/06/21 07:36:48;;;;;;;3.95;3.70;;;38.20;48.10;;;;;;5107471;27;20248;-69
2021/06/21 07:39:16;;;;;;;4.78;4.47;;;37.60;49.20;;;;;;5107661;28;20206;-70
2021/06/21 07:41:43;;;;;;;4.10;3.75;;;37.00;49.90;;;;;;5104736;27;20195;-69
2021/06/21 07:44:10;;;;;;;4.47;4.07;;;36.70;50.60;;;;;;5096495;28;20191;-70
2021/06/21 07:46:38;;;;;;;4.20;3.90;;;36.40;51.20;;;;;;5108672;27;20280;-71
2021/06/21 07:49:07;;;;;;;3.97;3.70;;;36.10;51.70;;;;;;5108152;28;20282;-71
2021/06/21 07:51:34;;;;;;;3.92;3.72;;;35.80;51.90;;;;;;5108109;28;20214;-70
2021/06/21 07:54:01;;;;;;;5.55;3.70;;;35.60;52.00;;;;;;5109437;27;20284;-71
2021/06/21 07:56:28;;;;;;;4.18;3.70;;;35.50;52.40;;;;;;5106117;27;20225;-67
2021/06/21 07:58:55;;;;;;;5.07;3.72;;;35.30;52.60;;;;;;5105562;27;20698;-66
2021/06/21 08:01:24;;;;;;;5.55;3.72;;;35.00;53.20;;;;;;5107745;27;20283;-66
2021/06/21 08:03:56;;;;;;;5.38;3.33;;;34.90;53.80;;;;;;5109098;27;20313;-67
2021/06/21 08:06:23;;;;;;;4.88;3.60;;;34.70;54.20;;;;;;5107043;27;20292;-68
2021/06/21 08:08:50;;;;;;;3.40;3.20;;;34.50;54.30;;;;;;5109294;27;20210;-68
2021/06/21 08:11:17;;;;;;;3.72;3.40;;;34.50;54.40;;;;;;5111439;27;20246;-69
2021/06/21 08:13:44;;;;;;;3.85;3.55;;;34.30;54.70;;;;;;5107902;27;20608;-68
2021/06/21 08:16:11;;;;;;;5.45;3.72;;;34.20;54.80;;;;;;5109361;27;20266;-69
2021/06/21 08:18:38;;;;;;;4.00;3.42;;;34.10;55.30;;;;;;5110184;27;20195;-69
2021/06/21 08:21:07;;;;;;;3.33;3.08;;;34.00;54.80;;;;;;5108304;27;20196;-69
2021/06/21 08:23:34;;;;;;;4.60;2.80;;;34.00;55.00;;;;;;5102918;27;20219;-68
2021/06/21 08:26:01;;;;;;;3.33;3.03;;;33.90;55.20;;;;;;5108578;27;20196;-67
2021/06/21 08:28:28;;;;;;;3.20;2.90;;;33.80;55.20;;;;;;5109112;27;20188;-68
2021/06/21 08:30:55;;;;;;;3.30;2.95;;;33.80;55.50;;;;;;5106096;27;20195;-67
2021/06/21 08:33:22;;;;;;;4.60;3.03;;;33.80;55.60;;;;;;5107264;27;20196;-67
2021/06/21 08:35:50;;;;;;;5.75;3.13;;;33.70;55.60;;;;;;5107656;27;20200;-68
2021/06/21 08:38:18;;;;;;;3.40;3.10;;;33.70;55.20;;;;;;5108084;27;20184;-68
2021/06/21 08:40:45;;;;;;;3.40;2.78;;;33.80;55.40;;;;;;5108554;27;20215;-68
2021/06/21 08:43:13;;;;;;;3.10;2.78;;;33.80;55.30;;;;;;5107591;27;20195;-68
2021/06/21 08:45:40;;;;;;;4.53;2.80;;;33.80;55.20;;;;;;5106000;27;20649;-67
2021/06/21 08:48:10;;;;;;;3.03;2.83;;;33.80;55.20;;;;;;5109125;27;20616;-68
2021/06/21 08:50:38;;;;;;;4.28;2.92;;;33.70;55.00;;;;;;5109152;27;20552;-68
2021/06/21 08:53:05;;;;;;;2.83;2.42;;;33.80;55.20;;;;;;5104063;27;20187;-68
2021/06/21 08:55:33;;;;;;;4.65;2.50;;;33.70;55.40;;;;;;5109532;27;20199;-68
2021/06/21 08:58:02;;;;;;;3.95;2.40;;;33.70;55.60;;;;;;5105991;28;20200;-68
2021/06/21 09:00:29;;;;;;;2.70;2.50;;;33.80;55.30;;;;;;5106475;27;20479;-65
2021/06/21 09:03:00;;;;;;;2.40;2.30;;;33.80;55.40;;;;;;5109104;27;20192;-64
2021/06/21 09:05:28;;;;;;;3.85;2.30;;;33.80;55.40;;;;;;5117075;27;20295;-64
2021/06/21 09:08:01;;;;;;;2.53;2.33;;;33.80;55.20;;;;;;5108077;27;20432;-64
2021/06/21 09:10:30;;;;;;;2.83;2.03;;;34.00;54.90;;;;;;5106907;27;20657;-64
2021/06/21 09:13:17;;;;;;;2.35;1.92;;;34.10;54.10;;;;;;5109764;27;20281;-64
2021/06/21 09:15:46;;;;;;;4.85;2.22;;;34.20;54.20;;;;;;5104973;28;20578;-65
2021/06/21 09:18:35;;;;;;;4.40;2.28;;;34.10;54.20;;;;;;5100734;28;20302;-64
2021/06/21 09:21:21;;;;;;;2.45;2.28;;;34.20;54.30;;;;;;5103495;28;20246;-65
2021/06/21 09:23:50;;;;;;;4.68;2.35;;;34.10;54.40;;;;;;5111250;27;20303;-64
2021/06/21 09:26:19;;;;;;;5.55;2.20;;;34.10;54.20;;;;;;5109283;27;20282;-64
2021/06/21 09:28:48;;;;;;;2.30;2.10;;;34.10;54.20;;;;;;5111279;27;20219;-65
2021/06/21 09:31:15;;;;;;;1.60;1.60;;;34.00;54.50;;;;;;5106749;27;20217;-64
2021/06/21 09:33:44;;;;;;;2.58;2.10;;;34.00;54.80;;;;;;5110778;27;20227;-66
2021/06/21 09:36:24;;;;;;;2.20;2.10;;;34.00;55.00;;;;;;5101290;27;20271;-66
2021/06/21 09:39:31;;;;;;;4.45;2.38;;;34.10;55.10;;;;;;5107313;27;20298;-67
2021/06/21 09:42:13;;;;;;;2.42;2.25;;;34.30;54.90;;;;;;5063628;28;20396;-67
2021/06/21 09:44:45;;;;;;;2.50;2.30;;;34.60;54.60;;;;;;5061759;28;20204;-67
2021/06/21 09:47:28;;;;;;;4.82;2.55;;;34.80;54.40;;;;;;5052984;28;20213;-67
2021/06/21 09:50:08;;;;;;;5.10;2.80;;;34.90;54.20;;;;;;5057206;28;20209;-67
2021/06/21 09:52:38;;;;;;;3.97;2.90;;;35.10;54.10;;;;;;5059127;28;20209;-66
2021/06/21 09:55:13;;;;;;;3.88;2.78;;;35.10;54.00;;;;;;5061014;28;20220;-67
2021/06/21 09:57:40;;;;;;;3.20;2.67;;;35.20;54.00;;;;;;5059447;28;20356;-67
2021/06/21 10:00:13;;;;;;;3.47;2.65;;;35.20;54.00;;;;;;5044380;28;20311;-68
2021/06/21 10:02:41;;;;;;;3.90;2.38;;;35.30;53.90;;;;;;5041908;28;20424;-68
2021/06/21 10:05:19;;;;;;;8.60;2.17;;;35.30;53.60;;;;;;5039739;28;20228;-68
2021/06/21 10:07:46;;;;;;;4.20;2.42;;;35.40;53.20;;;;;;5044906;28;20584;-68
2021/06/21 10:10:16;;;;;;;3.75;2.80;;;35.40;52.90;;;;;;5057149;28;20193;-67
2021/06/21 10:12:43;;;;;;;3.65;2.75;;;35.40;52.90;;;;;;5051586;28;20243;-76
2021/06/21 10:15:13;;;;;;;2.83;2.58;;;35.40;52.90;;;;;;5053576;28;20212;-74
2021/06/21 10:17:41;;;;;;;3.28;2.97;;;35.50;52.60;;;;;;5065003;28;20208;-74
2021/06/21 10:20:10;;;;;;;4.20;2.70;;;35.50;52.20;;;;;;5108841;28;20233;-74
2021/06/21 10:22:41;;;;;;;7.78;2.75;;;35.50;51.90;;;;;;5103491;28;20203;-75
2021/06/21 10:25:11;;;;;;;2.70;2.50;;;35.60;51.60;;;;;;5103390;28;20569;-74
2021/06/21 10:27:42;;;;;;;10.15;2.80;;;35.60;51.30;;;;;;5100781;28;20195;-75
2021/06/21 10:30:14;;;;;;;2.85;2.65;;;35.70;51.40;;;;;;5104455;28;20298;-74
2021/06/21 10:32:42;;;;;;;6.05;2.63;;;35.70;50.70;;;;;;5107364;28;20195;-75
2021/06/21 10:35:12;;;;;;;3.00;2.70;;;35.70;50.70;;;;;;5105493;28;20194;-76
2021/06/21 10:37:53;;;;;;;3.65;2.30;;;35.70;50.70;;;;;;5109082;28;20202;-76
2021/06/21 10:40:20;;;;;;;4.05;2.67;;;35.60;49.30;;;;;;5104079;28;20214;-73
2021/06/21 10:42:47;;;;;;;2.70;2.50;;;35.60;49.30;;;;;;5101366;28;20191;-74
2021/06/21 10:45:20;;;;;;;7.13;2.83;;;35.60;49.60;;;;;;5105984;28;20290;-74
2021/06/21 10:47:48;;;;;;;6.95;2.20;;;35.70;49.80;;;;;;5109296;28;20218;-70
2021/06/21 10:50:25;;;;;;;4.53;2.60;;;35.70;50.50;;;;;;5110279;27;20195;-70
2021/06/21 10:53:00;;;;;;;5.22;2.58;;;35.80;49.60;;;;;;5112651;27;20904;-70
2021/06/21 10:55:53;;;;;;;6.93;2.53;;;35.90;49.40;;;;;;5114615;27;20252;-71
2021/06/21 10:58:40;;;;;;;3.80;2.50;;;35.90;48.90;;;;;;5108227;27;20644;-70
2021/06/21 11:01:21;;;;;;;9.32;2.65;;;35.90;48.60;;;;;;5105581;27;20227;-71
2021/06/21 11:03:49;;;;;;;8.30;2.80;;;36.00;48.60;;;;;;5108871;28;20251;-71
2021/06/21 11:06:42;;;;;;;4.70;2.40;;;36.00;48.70;;;;;;5109627;27;20793;-70
2021/06/21 11:09:11;;;;;;;5.07;2.90;;;35.90;48.90;;;;;;5104416;27;20194;-70
2021/06/21 11:11:51;;;;;;;8.18;2.65;;;35.80;49.20;;;;;;5112378;27;20222;-71
2021/06/21 11:14:23;;;;;;;4.32;3.08;;;35.70;49.30;;;;;;5108853;27;20304;-71
2021/06/21 11:17:14;;;;;;;4.25;2.47;;;35.70;49.20;;;;;;5112922;27;20512;-71
2021/06/21 11:19:42;;;;;;;5.22;2.72;;;35.80;48.80;;;;;;5113465;27;20200;-76
2021/06/21 11:22:10;;;;;;;8.73;2.72;;;35.80;48.50;;;;;;5112278;27;20690;-70
2021/06/21 11:24:57;;;;;;;3.22;2.67;;;35.80;48.20;;;;;;5101242;27;20642;-70
2021/06/21 11:27:41;;;;;;;2.33;2.20;;;35.70;48.00;;;;;;5106188;27;20202;-70
2021/06/21 11:30:35;;;;;;;4.40;2.55;;;35.70;48.50;;;;;;5108365;27;20270;-70
2021/06/21 11:33:06;;;;;;;5.47;2.40;;;35.70;48.80;;;;;;5102167;27;20223;-70
2021/06/21 11:35:54;;;;;;;8.05;2.30;;;35.70;48.90;;;;;;5107130;27;20666;-70
2021/06/21 11:38:33;;;;;;;2.38;2.17;;;35.70;48.50;;;;;;5108401;27;20195;-69
2021/06/21 11:41:25;;;;;;;2.35;2.15;;;35.80;48.70;;;;;;5110246;27;20513;-70
2021/06/21 11:43:55;;;;;;;4.47;2.40;;;35.80;48.30;;;;;;5109949;27;20192;-69
2021/06/21 11:46:45;;;;;;;4.03;2.30;;;35.80;48.80;;;;;;5111126;27;20207;-70
2021/06/21 11:49:15;;;;;;;3.15;2.78;;;35.90;48.30;;;;;;5111774;27;20194;-69
2021/06/21 11:52:01;;;;;;;2.35;2.20;;;36.30;47.10;;;;;;5103064;27;20563;-71
2021/06/21 11:54:38;;;;;;;2.28;2.08;;;37.00;46.60;;;;;;5110113;27;20194;-70
2021/06/21 11:57:07;;;;;;;2.60;2.40;;;37.60;45.30;;;;;;5108617;27;20612;-70
2021/06/21 11:59:38;;;;;;;7.38;2.30;;;38.00;44.20;;;;;;5115853;27;20528;-71
2021/06/21 12:02:08;;;;;;;4.65;2.22;;;38.30;43.70;;;;;;5111697;27;20297;-76
2021/06/21 12:04:37;;;;;;;14.10;2.60;;;38.70;43.30;;;;;;5104343;27;20422;-72
2021/06/21 12:07:05;;;;;;;7.25;2.80;;;38.90;42.80;;;;;;5113748;27;20246;-70
2021/06/21 12:09:37;;;;;;;3.78;2.70;;;38.90;42.40;;;;;;5113593;27;20282;-70
2021/06/21 12:12:05;;;;;;;10.43;3.15;;;39.00;42.50;;;;;;5107085;27;20310;-71
2021/06/21 12:14:33;;;;;;;2.83;2.65;;;39.10;41.50;;;;;;5106070;27;20227;-71
2021/06/21 12:17:05;;;;;;;2.50;2.40;;;39.00;41.50;;;;;;5107496;27;20259;-70
2021/06/21 12:19:32;;;;;;;2.78;2.50;;;39.00;41.70;;;;;;5107635;28;20227;-70
2021/06/21 12:22:02;;;;;;;3.45;2.40;;;39.00;41.50;;;;;;5108549;27;20227;-70
2021/06/21 12:24:31;;;;;;;5.68;2.72;;;38.90;41.70;;;;;;5108327;27;20275;-70
2021/06/21 12:27:02;;;;;;;4.70;2.35;;;39.00;42.00;;;;;;5106015;28;20286;-70
2021/06/21 12:29:31;;;;;;;2.45;2.33;;;38.90;41.70;;;;;;5106672;28;20206;-70
2021/06/21 12:32:04;;;;;;;2.60;2.40;;;38.90;41.50;;;;;;5106520;28;20183;-70
2021/06/21 12:34:49;;;;;;;2.40;2.20;;;38.80;41.50;;;;;;5108691;28;20226;-70
2021/06/21 12:37:20;;;;;;;2.90;2.20;;;38.60;41.60;;;;;;5105778;28;20205;-70
2021/06/21 12:39:49;;;;;;;2.10;2.00;;;38.20;41.40;;;;;;5106796;28;20469;-71
2021/06/21 12:42:19;;;;;;;2.67;2.30;;;37.90;41.40;;;;;;5109003;27;20219;-70
2021/06/21 12:44:47;;;;;;;5.60;2.08;;;37.60;41.80;;;;;;5108878;27;20293;-70
2021/06/21 12:47:16;;;;;;;2.90;1.80;;;37.40;41.90;;;;;;5107588;27;20561;-70
2021/06/21 12:49:43;;;;;;;5.38;2.20;;;37.00;42.20;;;;;;5106667;27;20570;-71
2021/06/21 12:52:11;;;;;;;2.25;2.15;;;36.80;42.70;;;;;;5112079;27;20656;-70
2021/06/21 12:54:40;;;;;;;1.90;1.80;;;36.50;43.20;;;;;;5108559;27;20266;-71
2021/06/21 12:57:07;;;;;;;2.20;2.10;;;36.30;43.30;;;;;;5111412;27;20203;-70
2021/06/21 12:59:38;;;;;;;2.25;2.10;;;36.10;43.70;;;;;;5110575;27;20302;-71
2021/06/21 13:02:08;;;;;;;2.20;2.00;;;35.80;44.10;;;;;;5103905;27;20210;-70